sensor_id;sensor_type;location;lat;lon;timestamp;pressure;altitude;pressure_sealevel;temperature;humidity
23589;BME280;11972;48.078;11.876;2023-01-16T00:03:40;94494.13;;;-1.30;100.00
23589;BME280;11972;48.078;11.876;2023-01-16T00:07:40;94490.41;;;-1.28;100.00
23589;BME280;11972;48.078;11.876;2023-01-16T00:11:40;94477.34;;;-1.26;100.00
23589;BME280;11972;48.078;11.876;2023-01-16T00:15:46;94475.44;;;-1.24;100.00
23589;BME280;11972;48.078;11.876;2023-01-16T00:19:47;94461.38;;;-1.21;100.00
23589;BME280;11972;48.078;11.876;2023-01-16T00:23:47;94455.25;;;-1.20;100.00
23589;BME280;11972;48.078;11.876;2023-01-16T00:27:47;94443.91;;;-1.19;100.00
23589;BME280;11972;48.078;11.876;2023-01-16T00:31:47;94435.06;;;-1.17;100.00
23589;BME280;11972;48.078;11.876;2023-01-16T00:35:48;94429.22;;;-1.19;100.00
23589;BME280;11972;48.078;11.876;2023-01-16T00:39:48;94419.66;;;-1.18;100.00
23589;BME280;11972;48.078;11.876;2023-01-16T00:43:49;94413.09;;;-1.13;100.00
23589;BME280;11972;48.078;11.876;2023-01-16T00:47:49;94412.84;;;-1.10;100.00
23589;BME280;11972;48.078;11.876;2023-01-16T00:51:49;94397.28;;;-1.10;100.00
23589;BME280;11972;48.078;11.876;2023-01-16T00:55:51;94397.28;;;-1.10;100.00
23589;BME280;11972;48.078;11.876;2023-01-16T00:59:52;94388.97;;;-1.13;100.00
23589;BME280;11972;48.078;11.876;2023-01-16T01:03:52;94382.28;;;-1.16;100.00
23589;BME280;11972;48.078;11.876;2023-01-16T01:07:52;94375.75;;;-1.20;100.00
23589;BME280;11972;48.078;11.876;2023-01-16T01:11:53;94371.69;;;-1.22;100.00
23589;BME280;11972;48.078;11.876;2023-01-16T01:15:53;94358.03;;;-1.25;100.00
23589;BME280;11972;48.078;11.876;2023-01-16T01:19:54;94364.16;;;-1.26;100.00
23589;BME280;11972;48.078;11.876;2023-01-16T01:23:56;94363.22;;;-1.25;100.00
23589;BME280;11972;48.078;11.876;2023-01-16T01:27:56;94354.34;;;-1.22;100.00
23589;BME280;11972;48.078;11.876;2023-01-16T01:31:56;94349.56;;;-1.17;100.00
23589;BME280;11972;48.078;11.876;2023-01-16T01:35:56;94344.09;;;-1.14;100.00
23589;BME280;11972;48.078;11.876;2023-01-16T01:39:57;94342.19;;;-1.12;100.00
23589;BME280;11972;48.078;11.876;2023-01-16T01:43:57;94324.72;;;-1.10;100.00
23589;BME280;11972;48.078;11.876;2023-01-16T01:48:18;94319.41;;;-1.08;100.00
23589;BME280;11972;48.078;11.876;2023-01-16T01:52:20;94318.59;;;-1.09;100.00
23589;BME280;11972;48.078;11.876;2023-01-16T01:56:30;94306.44;;;-1.08;100.00
23589;BME280;11972;48.078;11.876;2023-01-16T02:00:34;94303.72;;;-1.07;100.00
23589;BME280;11972;48.078;11.876;2023-01-16T02:04:39;94288.19;;;-1.07;100.00
23589;BME280;11972;48.078;11.876;2023-01-16T02:08:41;94298.66;;;-1.08;100.00
23589;BME280;11972;48.078;11.876;2023-01-16T02:12:45;94292.50;;;-1.07;100.00
23589;BME280;11972;48.078;11.876;2023-01-16T02:16:47;94287.34;;;-1.07;100.00
23589;BME280;11972;48.078;11.876;2023-01-16T02:21:41;94272.63;;;-1.07;100.00
23589;BME280;11972;48.078;11.876;2023-01-16T02:26:16;94267.56;;;-1.08;100.00
23589;BME280;11972;48.078;11.876;2023-01-16T02:35:19;94239.50;;;-1.13;100.00
23589;BME280;11972;48.078;11.876;2023-01-16T02:39:31;94237.19;;;-1.16;100.00
23589;BME280;11972;48.078;11.876;2023-01-16T02:56:03;94206.78;;;-1.23;100.00
23589;BME280;11972;48.078;11.876;2023-01-16T03:00:09;94189.41;;;-1.31;100.00
23589;BME280;11972;48.078;11.876;2023-01-16T03:04:48;94177.81;;;-1.37;100.00
23589;BME280;11972;48.078;11.876;2023-01-16T03:13:40;94160.41;;;-1.44;100.00
23589;BME280;11972;48.078;11.876;2023-01-16T03:26:29;94146.50;;;-1.16;100.00
23589;BME280;11972;48.078;11.876;2023-01-16T03:34:58;94128.34;;;-1.16;100.00
23589;BME280;11972;48.078;11.876;2023-01-16T03:39:03;94118.59;;;-1.22;100.00
23589;BME280;11972;48.078;11.876;2023-01-16T03:43:11;94112.34;;;-1.29;100.00
23589;BME280;11972;48.078;11.876;2023-01-16T03:47:19;94095.47;;;-1.33;100.00
23589;BME280;11972;48.078;11.876;2023-01-16T03:51:26;94089.22;;;-1.40;100.00
23589;BME280;11972;48.078;11.876;2023-01-16T03:55:33;94079.81;;;-1.41;100.00
23589;BME280;11972;48.078;11.876;2023-01-16T03:59:36;94065.09;;;-1.41;100.00
23589;BME280;11972;48.078;11.876;2023-01-16T04:03:43;94066.59;;;-1.38;100.00
23589;BME280;11972;48.078;11.876;2023-01-16T04:07:53;94053.28;;;-1.43;100.00
23589;BME280;11972;48.078;11.876;2023-01-16T04:11:58;94040.63;;;-1.46;100.00
23589;BME280;11972;48.078;11.876;2023-01-16T04:16:01;94025.00;;;-1.55;100.00
23589;BME280;11972;48.078;11.876;2023-01-16T04:20:05;94015.78;;;-1.67;100.00
23589;BME280;11972;48.078;11.876;2023-01-16T04:24:06;94010.81;;;-1.78;100.00
23589;BME280;11972;48.078;11.876;2023-01-16T04:28:06;93999.00;;;-1.90;100.00
23589;BME280;11972;48.078;11.876;2023-01-16T04:32:06;93996.03;;;-1.95;100.00
23589;BME280;11972;48.078;11.876;2023-01-16T04:36:07;93992.16;;;-2.09;100.00
23589;BME280;11972;48.078;11.876;2023-01-16T04:40:08;93982.00;;;-2.20;100.00
23589;BME280;11972;48.078;11.876;2023-01-16T04:44:09;93973.59;;;-2.32;100.00
23589;BME280;11972;48.078;11.876;2023-01-16T04:48:10;93964.66;;;-2.47;100.00
23589;BME280;11972;48.078;11.876;2023-01-16T04:52:12;93947.28;;;-2.55;100.00
23589;BME280;11972;48.078;11.876;2023-01-16T04:56:12;93945.91;;;-2.59;100.00
23589;BME280;11972;48.078;11.876;2023-01-16T05:00:13;93931.25;;;-2.59;100.00
23589;BME280;11972;48.078;11.876;2023-01-16T05:04:15;93909.72;;;-2.59;100.00
23589;BME280;11972;48.078;11.876;2023-01-16T05:08:15;93894.91;;;-2.57;100.00
23589;BME280;11972;48.078;11.876;2023-01-16T05:12:15;93884.03;;;-2.61;100.00
23589;BME280;11972;48.078;11.876;2023-01-16T05:16:16;93887.59;;;-2.62;100.00
23589;BME280;11972;48.078;11.876;2023-01-16T05:20:16;93871.13;;;-2.61;100.00
23589;BME280;11972;48.078;11.876;2023-01-16T05:24:16;93861.59;;;-2.60;100.00
23589;BME280;11972;48.078;11.876;2023-01-16T05:28:17;93853.19;;;-2.62;100.00
23589;BME280;11972;48.078;11.876;2023-01-16T05:32:17;93844.22;;;-2.68;100.00
23589;BME280;11972;48.078;11.876;2023-01-16T05:36:17;93839.47;;;-2.72;100.00
23589;BME280;11972;48.078;11.876;2023-01-16T05:40:18;93841.53;;;-2.76;100.00
23589;BME280;11972;48.078;11.876;2023-01-16T05:44:18;93826.44;;;-2.81;100.00
23589;BME280;11972;48.078;11.876;2023-01-16T05:48:19;93816.81;;;-2.88;100.00
23589;BME280;11972;48.078;11.876;2023-01-16T05:52:19;93798.63;;;-2.96;100.00
23589;BME280;11972;48.078;11.876;2023-01-16T05:56:21;93793.66;;;-3.08;100.00
23589;BME280;11972;48.078;11.876;2023-01-16T06:00:22;93791.91;;;-3.17;100.00
23589;BME280;11972;48.078;11.876;2023-01-16T06:04:23;93782.16;;;-3.23;100.00
23589;BME280;11972;48.078;11.876;2023-01-16T06:08:23;93777.28;;;-3.26;100.00
23589;BME280;11972;48.078;11.876;2023-01-16T06:12:23;93767.25;;;-3.29;100.00
23589;BME280;11972;48.078;11.876;2023-01-16T06:16:25;93763.03;;;-3.30;100.00
23589;BME280;11972;48.078;11.876;2023-01-16T06:20:25;93762.38;;;-3.32;100.00
23589;BME280;11972;48.078;11.876;2023-01-16T06:24:25;93750.00;;;-3.38;100.00
23589;BME280;11972;48.078;11.876;2023-01-16T06:28:26;93737.41;;;-3.41;100.00
23589;BME280;11972;48.078;11.876;2023-01-16T06:32:26;93723.44;;;-3.48;100.00
23589;BME280;11972;48.078;11.876;2023-01-16T06:36:26;93716.50;;;-3.48;100.00
23589;BME280;11972;48.078;11.876;2023-01-16T06:40:27;93693.81;;;-3.44;100.00
23589;BME280;11972;48.078;11.876;2023-01-16T06:44:27;93685.47;;;-3.38;100.00
23589;BME280;11972;48.078;11.876;2023-01-16T06:48:27;93676.38;;;-3.33;100.00
23589;BME280;11972;48.078;11.876;2023-01-16T06:52:28;93662.50;;;-3.32;100.00
23589;BME280;11972;48.078;11.876;2023-01-16T06:56:29;93659.38;;;-3.35;100.00
23589;BME280;11972;48.078;11.876;2023-01-16T07:00:29;93640.78;;;-3.39;100.00
23589;BME280;11972;48.078;11.876;2023-01-16T07:04:29;93630.34;;;-3.37;100.00
23589;BME280;11972;48.078;11.876;2023-01-16T07:08:30;93611.03;;;-3.33;100.00
23589;BME280;11972;48.078;11.876;2023-01-16T07:12:30;93592.78;;;-3.32;100.00
23589;BME280;11972;48.078;11.876;2023-01-16T07:16:30;93584.88;;;-3.30;100.00
23589;BME280;11972;48.078;11.876;2023-01-16T07:20:53;93573.91;;;-3.14;100.00
23589;BME280;11972;48.078;11.876;2023-01-16T07:25:16;93563.09;;;-3.00;100.00
23589;BME280;11972;48.078;11.876;2023-01-16T07:29:18;93541.72;;;-2.84;100.00
23589;BME280;11972;48.078;11.876;2023-01-16T07:33:18;93542.16;;;-2.71;100.00
23589;BME280;11972;48.078;11.876;2023-01-16T07:37:19;93526.38;;;-2.60;100.00
23589;BME280;11972;48.078;11.876;2023-01-16T07:41:19;93523.88;;;-2.52;100.00
23589;BME280;11972;48.078;11.876;2023-01-16T07:45:19;93516.03;;;-2.42;100.00
23589;BME280;11972;48.078;11.876;2023-01-16T07:49:20;93503.78;;;-2.32;100.00
23589;BME280;11972;48.078;11.876;2023-01-16T07:53:22;93494.34;;;-2.15;100.00
23589;BME280;11972;48.078;11.876;2023-01-16T07:57:23;93473.19;;;-2.02;100.00
23589;BME280;11972;48.078;11.876;2023-01-16T08:01:25;93464.06;;;-1.88;100.00
23589;BME280;11972;48.078;11.876;2023-01-16T08:05:25;93462.00;;;-1.77;100.00
23589;BME280;11972;48.078;11.876;2023-01-16T08:09:27;93444.69;;;-1.68;100.00
23589;BME280;11972;48.078;11.876;2023-01-16T08:13:27;93426.25;;;-1.57;100.00
23589;BME280;11972;48.078;11.876;2023-01-16T08:17:40;93413.66;;;-1.43;100.00
23589;BME280;11972;48.078;11.876;2023-01-16T08:21:41;93408.16;;;-1.32;100.00
23589;BME280;11972;48.078;11.876;2023-01-16T08:25:41;93397.97;;;-1.26;100.00
23589;BME280;11972;48.078;11.876;2023-01-16T08:29:41;93383.88;;;-1.15;100.00
23589;BME280;11972;48.078;11.876;2023-01-16T08:33:42;93374.47;;;-1.08;100.00
23589;BME280;11972;48.078;11.876;2023-01-16T08:37:48;93377.19;;;-0.93;100.00
23589;BME280;11972;48.078;11.876;2023-01-16T08:41:48;93362.75;;;-0.79;100.00
23589;BME280;11972;48.078;11.876;2023-01-16T08:46:17;93350.22;;;-0.59;100.00
23589;BME280;11972;48.078;11.876;2023-01-16T08:50:37;93342.22;;;-0.50;100.00
23589;BME280;11972;48.078;11.876;2023-01-16T08:54:57;93330.66;;;-0.31;100.00
23589;BME280;11972;48.078;11.876;2023-01-16T08:58:58;93320.97;;;-0.14;100.00
23589;BME280;11972;48.078;11.876;2023-01-16T09:02:58;93313.38;;;0.08;100.00
23589;BME280;11972;48.078;11.876;2023-01-16T09:06:59;93303.59;;;0.18;100.00
23589;BME280;11972;48.078;11.876;2023-01-16T09:10:59;93291.75;;;0.38;100.00
23589;BME280;11972;48.078;11.876;2023-01-16T09:15:18;93283.13;;;0.61;100.00
23589;BME280;11972;48.078;11.876;2023-01-16T09:19:18;93271.88;;;0.83;100.00
23589;BME280;11972;48.078;11.876;2023-01-16T09:23:19;93251.00;;;1.06;100.00
23589;BME280;11972;48.078;11.876;2023-01-16T09:27:19;93248.84;;;1.24;100.00
23589;BME280;11972;48.078;11.876;2023-01-16T09:31:19;93246.75;;;1.49;100.00
23589;BME280;11972;48.078;11.876;2023-01-16T09:35:20;93240.97;;;1.69;100.00
23589;BME280;11972;48.078;11.876;2023-01-16T09:39:20;93230.81;;;1.95;100.00
23589;BME280;11972;48.078;11.876;2023-01-16T09:43:34;93216.16;;;2.16;100.00
23589;BME280;11972;48.078;11.876;2023-01-16T09:47:36;93207.31;;;2.38;100.00
23589;BME280;11972;48.078;11.876;2023-01-16T09:51:42;93196.63;;;2.55;100.00
23589;BME280;11972;48.078;11.876;2023-01-16T09:56:04;93185.53;;;2.74;100.00
23589;BME280;11972;48.078;11.876;2023-01-16T10:00:26;93180.22;;;2.95;100.00
23589;BME280;11972;48.078;11.876;2023-01-16T10:04:28;93165.50;;;3.16;100.00
23589;BME280;11972;48.078;11.876;2023-01-16T10:13:03;93135.91;;;3.57;100.00
23589;BME280;11972;48.078;11.876;2023-01-16T10:17:23;93121.06;;;3.64;100.00
23589;BME280;11972;48.078;11.876;2023-01-16T10:26:07;93091.78;;;3.75;100.00
23589;BME280;11972;48.078;11.876;2023-01-16T10:30:19;93077.72;;;3.89;100.00
23589;BME280;11972;48.078;11.876;2023-01-16T10:34:54;93054.00;;;3.97;100.00
23589;BME280;11972;48.078;11.876;2023-01-16T10:38:59;93028.44;;;4.19;100.00
23589;BME280;11972;48.078;11.876;2023-01-16T10:43:12;93019.03;;;4.25;100.00
23589;BME280;11972;48.078;11.876;2023-01-16T10:47:34;92998.16;;;4.05;100.00
23589;BME280;11972;48.078;11.876;2023-01-16T10:51:58;92984.13;;;3.93;100.00
23589;BME280;11972;48.078;11.876;2023-01-16T10:55:59;92966.38;;;4.15;100.00
23589;BME280;11972;48.078;11.876;2023-01-16T11:00:05;92962.31;;;4.32;100.00
23589;BME280;11972;48.078;11.876;2023-01-16T11:04:11;92951.03;;;4.45;100.00
23589;BME280;11972;48.078;11.876;2023-01-16T11:08:19;92937.72;;;4.46;100.00
23589;BME280;11972;48.078;11.876;2023-01-16T11:12:28;92929.31;;;4.44;100.00
23589;BME280;11972;48.078;11.876;2023-01-16T11:16:48;92918.31;;;4.74;100.00
23589;BME280;11972;48.078;11.876;2023-01-16T11:21:30;92901.91;;;5.17;100.00
23589;BME280;11972;48.078;11.876;2023-01-16T11:25:31;92886.72;;;5.51;100.00
23589;BME280;11972;48.078;11.876;2023-01-16T11:29:38;92885.25;;;5.80;100.00
23589;BME280;11972;48.078;11.876;2023-01-16T11:33:52;92876.31;;;5.87;100.00
23589;BME280;11972;48.078;11.876;2023-01-16T11:38:01;92865.94;;;5.99;100.00
23589;BME280;11972;48.078;11.876;2023-01-16T11:42:05;92839.38;;;5.95;100.00
23589;BME280;11972;48.078;11.876;2023-01-16T11:46:33;92831.94;;;5.92;100.00
23589;BME280;11972;48.078;11.876;2023-01-16T11:50:35;92814.31;;;5.81;100.00
23589;BME280;11972;48.078;11.876;2023-01-16T11:54:36;92799.03;;;5.78;100.00
23589;BME280;11972;48.078;11.876;2023-01-16T11:58:48;92793.44;;;5.75;100.00
23589;BME280;11972;48.078;11.876;2023-01-16T12:03:25;92788.19;;;5.75;100.00
23589;BME280;11972;48.078;11.876;2023-01-16T12:07:40;92773.75;;;5.72;100.00
23589;BME280;11972;48.078;11.876;2023-01-16T12:21:03;92726.59;;;5.72;100.00
23589;BME280;11972;48.078;11.876;2023-01-16T12:34:30;92727.25;;;6.16;100.00
23589;BME280;11972;48.078;11.876;2023-01-16T12:38:42;92728.72;;;6.12;100.00
23589;BME280;11972;48.078;11.876;2023-01-16T12:47:45;92721.44;;;6.14;100.00
23589;BME280;11972;48.078;11.876;2023-01-16T13:05:01;92706.13;;;6.41;100.00
23589;BME280;11972;48.078;11.876;2023-01-16T13:09:02;92712.03;;;6.36;100.00
23589;BME280;11972;48.078;11.876;2023-01-16T13:13:15;92715.81;;;6.40;100.00
23589;BME280;11972;48.078;11.876;2023-01-16T13:17:25;92710.13;;;6.43;100.00
23589;BME280;11972;48.078;11.876;2023-01-16T13:21:29;92706.22;;;6.34;100.00
23589;BME280;11972;48.078;11.876;2023-01-16T13:25:38;92695.97;;;6.33;100.00
23589;BME280;11972;48.078;11.876;2023-01-16T13:30:03;92703.69;;;6.28;100.00
23589;BME280;11972;48.078;11.876;2023-01-16T13:34:13;92707.88;;;6.17;100.00
23589;BME280;11972;48.078;11.876;2023-01-16T13:42:39;92710.22;;;5.95;100.00
23589;BME280;11972;48.078;11.876;2023-01-16T13:46:41;92709.69;;;5.86;100.00
23589;BME280;11972;48.078;11.876;2023-01-16T13:50:47;92712.38;;;5.80;100.00
23589;BME280;11972;48.078;11.876;2023-01-16T13:54:50;92714.50;;;5.71;100.00
23589;BME280;11972;48.078;11.876;2023-01-16T13:58:58;92720.50;;;5.60;100.00
23589;BME280;11972;48.078;11.876;2023-01-16T14:03:22;92735.78;;;5.44;100.00
23589;BME280;11972;48.078;11.876;2023-01-16T14:12:20;92761.88;;;4.89;100.00
23589;BME280;11972;48.078;11.876;2023-01-16T14:16:34;92757.38;;;4.78;100.00
23589;BME280;11972;48.078;11.876;2023-01-16T14:20:44;92741.16;;;4.69;100.00
23589;BME280;11972;48.078;11.876;2023-01-16T14:24:54;92732.47;;;4.69;100.00
23589;BME280;11972;48.078;11.876;2023-01-16T14:28:55;92747.19;;;4.70;100.00
23589;BME280;11972;48.078;11.876;2023-01-16T14:32:58;92735.09;;;4.69;100.00
23589;BME280;11972;48.078;11.876;2023-01-16T14:37:53;92732.47;;;4.69;100.00
23589;BME280;11972;48.078;11.876;2023-01-16T14:41:31;92724.47;;;4.64;100.00
23589;BME280;11972;48.078;11.876;2023-01-16T14:46:24;92723.31;;;4.60;100.00
23589;BME280;11972;48.078;11.876;2023-01-16T14:56:04;92720.69;;;4.35;100.00
23589;BME280;11972;48.078;11.876;2023-01-16T15:00:11;92713.34;;;4.25;100.00
23589;BME280;11972;48.078;11.876;2023-01-16T15:04:17;92705.16;;;4.15;100.00
23589;BME280;11972;48.078;11.876;2023-01-16T15:08:39;92693.97;;;4.08;100.00
23589;BME280;11972;48.078;11.876;2023-01-16T15:12:43;92709.91;;;4.00;100.00
23589;BME280;11972;48.078;11.876;2023-01-16T15:16:44;92698.91;;;3.91;100.00
23589;BME280;11972;48.078;11.876;2023-01-16T15:21:10;92715.06;;;3.75;100.00
23589;BME280;11972;48.078;11.876;2023-01-16T15:29:54;92697.72;;;3.48;100.00
23589;BME280;11972;48.078;11.876;2023-01-16T15:38:12;92691.59;;;3.23;100.00
23589;BME280;11972;48.078;11.876;2023-01-16T15:42:17;92677.59;;;3.11;100.00
23589;BME280;11972;48.078;11.876;2023-01-16T15:50:52;92670.44;;;2.86;100.00
23589;BME280;11972;48.078;11.876;2023-01-16T15:54:53;92670.09;;;2.76;100.00
23589;BME280;11972;48.078;11.876;2023-01-16T15:58:55;92670.72;;;2.65;100.00
23589;BME280;11972;48.078;11.876;2023-01-16T16:03:00;92669.50;;;2.54;100.00
23589;BME280;11972;48.078;11.876;2023-01-16T16:07:01;92669.31;;;2.42;100.00
23589;BME280;11972;48.078;11.876;2023-01-16T16:11:04;92658.53;;;2.32;100.00
23589;BME280;11972;48.078;11.876;2023-01-16T16:15:24;92651.13;;;2.16;100.00
23589;BME280;11972;48.078;11.876;2023-01-16T16:19:43;92636.50;;;2.02;100.00
23589;BME280;11972;48.078;11.876;2023-01-16T16:23:44;92664.53;;;1.93;100.00
23589;BME280;11972;48.078;11.876;2023-01-16T16:27:44;92670.16;;;1.90;100.00
23589;BME280;11972;48.078;11.876;2023-01-16T16:31:45;92676.16;;;1.77;100.00
23589;BME280;11972;48.078;11.876;2023-01-16T16:35:51;92668.91;;;1.66;100.00
23589;BME280;11972;48.078;11.876;2023-01-16T16:40:14;92678.88;;;1.56;100.00
23589;BME280;11972;48.078;11.876;2023-01-16T16:44:22;92654.84;;;1.47;100.00
23589;BME280;11972;48.078;11.876;2023-01-16T16:48:29;92664.44;;;1.40;100.00
23589;BME280;11972;48.078;11.876;2023-01-16T16:52:37;92653.25;;;1.33;100.00
23589;BME280;11972;48.078;11.876;2023-01-16T16:56:46;92639.63;;;1.24;100.00
23589;BME280;11972;48.078;11.876;2023-01-16T17:00:48;92635.78;;;1.13;100.00
23589;BME280;11972;48.078;11.876;2023-01-16T17:04:49;92637.94;;;1.03;100.00
23589;BME280;11972;48.078;11.876;2023-01-16T17:08:49;92636.69;;;0.92;100.00
23589;BME280;11972;48.078;11.876;2023-01-16T17:12:50;92646.63;;;0.82;100.00
23589;BME280;11972;48.078;11.876;2023-01-16T17:16:50;92642.22;;;0.76;100.00
23589;BME280;11972;48.078;11.876;2023-01-16T17:20:50;92647.59;;;0.68;100.00
23589;BME280;11972;48.078;11.876;2023-01-16T17:24:54;92657.75;;;0.63;100.00
23589;BME280;11972;48.078;11.876;2023-01-16T17:28:54;92664.16;;;0.67;100.00
23589;BME280;11972;48.078;11.876;2023-01-16T17:33:14;92670.81;;;0.76;100.00
23589;BME280;11972;48.078;11.876;2023-01-16T17:37:15;92673.47;;;0.89;100.00
23589;BME280;11972;48.078;11.876;2023-01-16T17:41:23;92678.31;;;0.99;100.00
23589;BME280;11972;48.078;11.876;2023-01-16T17:45:45;92677.94;;;1.09;100.00
23589;BME280;11972;48.078;11.876;2023-01-16T17:49:59;92673.34;;;1.11;100.00
23589;BME280;11972;48.078;11.876;2023-01-16T17:54:18;92666.28;;;0.91;100.00
23589;BME280;11972;48.078;11.876;2023-01-16T17:58:39;92672.56;;;0.69;100.00
23589;BME280;11972;48.078;11.876;2023-01-16T18:02:46;92682.03;;;0.48;100.00
23589;BME280;11972;48.078;11.876;2023-01-16T18:06:47;92678.75;;;0.33;100.00
23589;BME280;11972;48.078;11.876;2023-01-16T18:10:48;92693.94;;;0.36;100.00
23589;BME280;11972;48.078;11.876;2023-01-16T18:14:48;92674.81;;;0.44;100.00
23589;BME280;11972;48.078;11.876;2023-01-16T18:19:07;92657.69;;;0.49;100.00
23589;BME280;11972;48.078;11.876;2023-01-16T18:23:09;92654.38;;;0.34;100.00
23589;BME280;11972;48.078;11.876;2023-01-16T18:27:15;92655.19;;;0.07;100.00
23589;BME280;11972;48.078;11.876;2023-01-16T18:31:20;92650.78;;;-0.21;100.00
23589;BME280;11972;48.078;11.876;2023-01-16T18:35:20;92643.13;;;-0.29;100.00
23589;BME280;11972;48.078;11.876;2023-01-16T18:39:22;92662.47;;;-0.53;100.00
23589;BME280;11972;48.078;11.876;2023-01-16T18:43:41;92667.03;;;-0.77;100.00
23589;BME280;11972;48.078;11.876;2023-01-16T18:48:00;92676.69;;;-0.85;100.00
23589;BME280;11972;48.078;11.876;2023-01-16T18:52:19;92689.72;;;-0.79;100.00
23589;BME280;11972;48.078;11.876;2023-01-16T18:56:40;92681.25;;;-0.87;100.00
23589;BME280;11972;48.078;11.876;2023-01-16T19:00:59;92687.66;;;-0.83;100.00
23589;BME280;11972;48.078;11.876;2023-01-16T19:05:18;92690.03;;;-0.67;100.00
23589;BME280;11972;48.078;11.876;2023-01-16T19:09:19;92677.72;;;-0.43;100.00
23589;BME280;11972;48.078;11.876;2023-01-16T19:13:21;92681.53;;;-0.18;100.00
23589;BME280;11972;48.078;11.876;2023-01-16T19:17:36;92680.53;;;0.05;100.00
23589;BME280;11972;48.078;11.876;2023-01-16T19:21:37;92692.84;;;0.24;100.00
23589;BME280;11972;48.078;11.876;2023-01-16T19:25:38;92686.84;;;0.52;100.00
23589;BME280;11972;48.078;11.876;2023-01-16T19:29:39;92674.03;;;0.85;100.00
23589;BME280;11972;48.078;11.876;2023-01-16T19:33:39;92665.97;;;1.14;100.00
23589;BME280;11972;48.078;11.876;2023-01-16T19:37:39;92675.22;;;1.30;100.00
23589;BME280;11972;48.078;11.876;2023-01-16T19:41:44;92712.50;;;1.51;100.00
23589;BME280;11972;48.078;11.876;2023-01-16T19:46:02;92711.00;;;1.89;100.00
23589;BME280;11972;48.078;11.876;2023-01-16T19:50:21;92714.41;;;2.36;100.00
23589;BME280;11972;48.078;11.876;2023-01-16T19:54:23;92720.59;;;2.75;100.00
23589;BME280;11972;48.078;11.876;2023-01-16T19:58:24;92729.00;;;2.97;100.00
23589;BME280;11972;48.078;11.876;2023-01-16T20:02:25;92738.38;;;3.11;100.00
23589;BME280;11972;48.078;11.876;2023-01-16T20:06:25;92750.19;;;3.20;100.00
23589;BME280;11972;48.078;11.876;2023-01-16T20:10:26;92773.06;;;3.25;100.00
23589;BME280;11972;48.078;11.876;2023-01-16T20:14:26;92781.88;;;3.24;100.00
23589;BME280;11972;48.078;11.876;2023-01-16T20:18:28;92772.66;;;3.15;100.00
23589;BME280;11972;48.078;11.876;2023-01-16T20:22:29;92750.03;;;3.09;100.00
23589;BME280;11972;48.078;11.876;2023-01-16T20:26:29;92756.03;;;3.03;100.00
23589;BME280;11972;48.078;11.876;2023-01-16T20:30:30;92754.22;;;3.03;100.00
23589;BME280;11972;48.078;11.876;2023-01-16T20:34:45;92745.63;;;3.03;100.00
23589;BME280;11972;48.078;11.876;2023-01-16T20:38:46;92726.56;;;3.09;100.00
23589;BME280;11972;48.078;11.876;2023-01-16T20:42:47;92723.31;;;3.20;100.00
23589;BME280;11972;48.078;11.876;2023-01-16T20:47:09;92718.66;;;3.29;100.00
23589;BME280;11972;48.078;11.876;2023-01-16T20:51:10;92707.28;;;3.10;100.00
23589;BME280;11972;48.078;11.876;2023-01-16T20:55:10;92708.13;;;2.90;100.00
23589;BME280;11972;48.078;11.876;2023-01-16T20:59:12;92697.72;;;2.84;100.00
23589;BME280;11972;48.078;11.876;2023-01-16T21:03:14;92692.91;;;2.87;100.00
23589;BME280;11972;48.078;11.876;2023-01-16T21:07:14;92691.53;;;2.85;100.00
23589;BME280;11972;48.078;11.876;2023-01-16T21:11:14;92699.75;;;2.75;100.00
23589;BME280;11972;48.078;11.876;2023-01-16T21:15:33;92691.72;;;2.63;100.00
23589;BME280;11972;48.078;11.876;2023-01-16T21:19:34;92702.97;;;2.51;100.00
23589;BME280;11972;48.078;11.876;2023-01-16T21:23:53;92682.97;;;2.31;100.00
23589;BME280;11972;48.078;11.876;2023-01-16T21:27:53;92688.56;;;2.08;100.00
23589;BME280;11972;48.078;11.876;2023-01-16T21:31:55;92682.94;;;1.85;100.00
23589;BME280;11972;48.078;11.876;2023-01-16T21:35:55;92684.13;;;1.69;100.00
23589;BME280;11972;48.078;11.876;2023-01-16T21:39:56;92680.91;;;1.54;100.00
23589;BME280;11972;48.078;11.876;2023-01-16T21:43:57;92672.66;;;1.43;100.00
23589;BME280;11972;48.078;11.876;2023-01-16T21:48:18;92676.63;;;1.33;100.00
23589;BME280;11972;48.078;11.876;2023-01-16T21:52:19;92674.22;;;1.24;100.00
23589;BME280;11972;48.078;11.876;2023-01-16T21:56:20;92682.78;;;1.12;100.00
23589;BME280;11972;48.078;11.876;2023-01-16T22:00:20;92679.34;;;1.05;100.00
23589;BME280;11972;48.078;11.876;2023-01-16T22:04:21;92685.13;;;1.07;100.00
23589;BME280;11972;48.078;11.876;2023-01-16T22:08:21;92674.78;;;1.20;100.00
23589;BME280;11972;48.078;11.876;2023-01-16T22:12:21;92685.63;;;1.30;100.00
23589;BME280;11972;48.078;11.876;2023-01-16T22:16:40;92688.44;;;1.35;100.00
23589;BME280;11972;48.078;11.876;2023-01-16T22:20:59;92684.09;;;1.49;100.00
23589;BME280;11972;48.078;11.876;2023-01-16T22:25:10;92672.47;;;1.52;100.00
23589;BME280;11972;48.078;11.876;2023-01-16T22:29:11;92676.50;;;1.61;100.00
23589;BME280;11972;48.078;11.876;2023-01-16T22:33:12;92673.91;;;1.61;100.00
23589;BME280;11972;48.078;11.876;2023-01-16T22:37:12;92678.72;;;1.57;100.00
23589;BME280;11972;48.078;11.876;2023-01-16T22:41:17;92667.72;;;1.62;100.00
23589;BME280;11972;48.078;11.876;2023-01-16T22:45:18;92666.72;;;1.69;100.00
23589;BME280;11972;48.078;11.876;2023-01-16T22:49:38;92668.09;;;1.72;100.00
23589;BME280;11972;48.078;11.876;2023-01-16T22:53:39;92662.53;;;1.75;100.00
23589;BME280;11972;48.078;11.876;2023-01-16T22:57:39;92673.72;;;1.69;100.00
23589;BME280;11972;48.078;11.876;2023-01-16T23:01:41;92668.53;;;1.69;100.00
23589;BME280;11972;48.078;11.876;2023-01-16T23:05:42;92685.72;;;1.70;100.00
23589;BME280;11972;48.078;11.876;2023-01-16T23:09:42;92675.13;;;1.65;100.00